Time;durP1;ratioP1;P1;durP2;ratioP2;P2;SDS_P1;SDS_P2;PMS_P1;PMS_P2;Temp;Humidity;BMP_temperature;BMP_pressure;BME280_temperature;BME280_humidity;BME280_pressure;Samples;Min_cycle;Max_cycle;Signal;HPM_P1;HPM_P2
2022/02/19 00:02:00;;;;;;;;;4.25;2.00;;;;;;;;5183000;27;11437;-86
2022/02/19 00:04:25;;;;;;;;;7.50;2.00;;;;;;;;5182669;27;9122;-87
2022/02/19 00:06:50;;;;;;;;;7.50;4.00;;;;;;;;5183012;27;8840;-86
2022/02/19 00:09:16;;;;;;;;;2.50;1.25;;;;;;;;5182794;27;8878;-87
2022/02/19 00:11:41;;;;;;;;;4.25;1.75;;;;;;;;5163557;27;11810;-87
2022/02/19 00:14:06;;;;;;;;;4.25;2.50;;;;;;;;5182999;27;10352;-87
2022/02/19 00:16:32;;;;;;;;;4.00;2.00;;;;;;;;5183320;27;8809;-88
2022/02/19 00:18:57;;;;;;;;;4.00;1.00;;;;;;;;5184009;27;8772;-88
2022/02/19 00:21:22;;;;;;;;;5.00;1.75;;;;;;;;5183218;27;8827;-89
2022/02/19 00:23:48;;;;;;;;;2.00;1.00;;;;;;;;5163831;27;11689;-88
2022/02/19 00:26:13;;;;;;;;;4.00;1.00;;;;;;;;5182792;27;11573;-88
2022/02/19 00:28:39;;;;;;;;;1.00;1.00;;;;;;;;5183294;27;9464;-89
2022/02/19 00:31:04;;;;;;;;;2.00;2.00;;;;;;;;5163502;27;8824;-89
2022/02/19 00:33:30;;;;;;;;;2.00;2.00;;;;;;;;5182620;27;8819;-88
2022/02/19 00:35:55;;;;;;;;;1.75;1.00;;;;;;;;5182976;27;8772;-88
2022/02/19 00:38:20;;;;;;;;;2.00;2.00;;;;;;;;5181955;27;10248;-89
2022/02/19 00:40:49;;;;;;;;;3.50;3.50;;;;;;;;5181216;27;10406;-87
2022/02/19 00:43:15;;;;;;;;;3.50;2.00;;;;;;;;5182234;27;11446;-87
2022/02/19 00:45:40;;;;;;;;;2.00;2.00;;;;;;;;5181587;27;12216;-87
2022/02/19 00:48:06;;;;;;;;;3.50;1.75;;;;;;;;5181644;27;11451;-88
2022/02/19 00:50:31;;;;;;;;;4.50;2.00;;;;;;;;5181312;27;11309;-87
2022/02/19 00:52:57;;;;;;;;;8.25;4.00;;;;;;;;5181870;27;11311;-88
2022/02/19 00:55:23;;;;;;;;;2.50;1.00;;;;;;;;5182370;27;10340;-87
2022/02/19 00:57:49;;;;;;;;;1.00;1.00;;;;;;;;5182080;27;10293;-88
2022/02/19 01:00:14;;;;;;;;;1.50;1.50;;;;;;;;5182385;27;9522;-88
2022/02/19 01:02:40;;;;;;;;;1.75;1.00;;;;;;;;5182203;27;8935;-88
2022/02/19 01:05:05;;;;;;;;;4.00;4.00;;;;;;;;5181836;27;8930;-88
2022/02/19 01:07:30;;;;;;;;;3.25;1.00;;;;;;;;5181226;27;10290;-87
2022/02/19 01:09:56;;;;;;;;;1.00;1.00;;;;;;;;5181575;27;11956;-87
2022/02/19 01:12:21;;;;;;;;;4.00;2.00;;;;;;;;5181515;27;9396;-87
2022/02/19 01:14:46;;;;;;;;;1.75;0.25;;;;;;;;5163086;27;8886;-88
2022/02/19 01:17:12;;;;;;;;;4.00;2.00;;;;;;;;5162279;27;13527;-87
2022/02/19 01:19:37;;;;;;;;;1.00;1.00;;;;;;;;5182223;27;11259;-88
2022/02/19 01:22:05;;;;;;;;;3.00;1.75;;;;;;;;5182656;27;8800;-86
2022/02/19 01:24:31;;;;;;;;;2.25;2.00;;;;;;;;5181427;27;11648;-86
2022/02/19 01:26:56;;;;;;;;;3.75;2.50;;;;;;;;5162224;27;13727;-87
2022/02/19 01:29:21;;;;;;;;;3.25;2.00;;;;;;;;5180845;27;12836;-86
2022/02/19 01:31:46;;;;;;;;;2.50;2.50;;;;;;;;5161418;27;8800;-88
2022/02/19 01:34:12;;;;;;;;;3.25;2.75;;;;;;;;5161838;27;13569;-88
2022/02/19 01:36:37;;;;;;;;;6.00;6.00;;;;;;;;5180572;27;11444;-88
2022/02/19 01:39:03;;;;;;;;;4.50;3.00;;;;;;;;5181530;27;11515;-88
2022/02/19 01:41:28;;;;;;;;;6.75;3.00;;;;;;;;5180822;27;10521;-88
2022/02/19 01:43:53;;;;;;;;;3.50;2.25;;;;;;;;5162686;27;9191;-87
2022/02/19 01:46:19;;;;;;;;;4.00;4.00;;;;;;;;5181214;27;12736;-87
2022/02/19 01:48:44;;;;;;;;;2.00;2.00;;;;;;;;5180843;27;12085;-88
2022/02/19 01:51:10;;;;;;;;;3.00;3.00;;;;;;;;5181033;27;8808;-87
2022/02/19 01:53:35;;;;;;;;;3.25;3.25;;;;;;;;5180796;27;9592;-87
2022/02/19 01:56:01;;;;;;;;;7.75;5.00;;;;;;;;5181083;27;8880;-87
2022/02/19 01:58:26;;;;;;;;;3.00;3.00;;;;;;;;5180986;27;13084;-87
2022/02/19 02:00:51;;;;;;;;;3.00;2.00;;;;;;;;5180883;27;10278;-88
2022/02/19 02:03:17;;;;;;;;;8.50;3.00;;;;;;;;5161382;27;8906;-87
2022/02/19 02:05:42;;;;;;;;;3.75;3.75;;;;;;;;5180300;27;10312;-87
2022/02/19 02:08:08;;;;;;;;;3.25;3.25;;;;;;;;5180347;27;11877;-88
2022/02/19 02:10:34;;;;;;;;;4.50;3.00;;;;;;;;5181607;27;8796;-87
2022/02/19 02:13:00;;;;;;;;;3.50;3.50;;;;;;;;5161677;27;13989;-88
2022/02/19 02:15:27;;;;;;;;;6.50;3.75;;;;;;;;5180688;27;11528;-88
2022/02/19 02:17:52;;;;;;;;;5.50;5.50;;;;;;;;5179645;27;12749;-88
2022/02/19 02:20:18;;;;;;;;;7.25;6.75;;;;;;;;5182000;27;11498;-89
2022/02/19 02:22:43;;;;;;;;;6.75;5.50;;;;;;;;5183423;27;11307;-82
2022/02/19 02:25:11;;;;;;;;;6.00;6.00;;;;;;;;5183089;27;11298;-88
2022/02/19 02:27:37;;;;;;;;;10.75;6.00;;;;;;;;5184085;27;11024;-88
2022/02/19 02:30:03;;;;;;;;;7.75;6.00;;;;;;;;5183203;27;16399;-88
2022/02/19 02:32:31;;;;;;;;;6.75;4.00;;;;;;;;5183019;27;16674;-88
2022/02/19 02:34:56;;;;;;;;;4.75;2.75;;;;;;;;5183446;27;11531;-87
2022/02/19 02:37:23;;;;;;;;;4.50;4.50;;;;;;;;5183532;27;12168;-87
2022/02/19 02:39:48;;;;;;;;;5.25;5.25;;;;;;;;5183349;27;10615;-88
2022/02/19 02:42:14;;;;;;;;;3.25;2.25;;;;;;;;5183009;27;11428;-88
2022/02/19 02:44:40;;;;;;;;;6.50;4.00;;;;;;;;5164799;27;11493;-86
2022/02/19 02:47:07;;;;;;;;;4.75;4.75;;;;;;;;5183805;27;11423;-89
2022/02/19 02:49:32;;;;;;;;;6.50;5.00;;;;;;;;5183506;27;11708;-89
2022/02/19 02:51:57;;;;;;;;;7.25;4.50;;;;;;;;5183275;27;11613;-88
2022/02/19 02:54:23;;;;;;;;;7.00;4.00;;;;;;;;5183106;27;11359;-88
2022/02/19 02:56:48;;;;;;;;;7.25;4.00;;;;;;;;5182903;27;8867;-88
2022/02/19 02:59:13;;;;;;;;;5.75;4.00;;;;;;;;5183314;27;9471;-88
2022/02/19 03:01:38;;;;;;;;;4.00;3.75;;;;;;;;5182881;27;8788;-88
2022/02/19 03:04:04;;;;;;;;;6.75;6.75;;;;;;;;5182779;27;11295;-89
2022/02/19 03:06:29;;;;;;;;;2.75;2.25;;;;;;;;5183173;27;10973;-88
2022/02/19 03:08:54;;;;;;;;;5.00;5.00;;;;;;;;5183076;27;10507;-88
2022/02/19 03:11:20;;;;;;;;;4.00;4.00;;;;;;;;5183392;27;11361;-88
2022/02/19 03:13:45;;;;;;;;;7.50;5.25;;;;;;;;5183543;27;9232;-86
2022/02/19 03:16:10;;;;;;;;;3.25;3.25;;;;;;;;5183270;27;11722;-87
2022/02/19 03:18:35;;;;;;;;;7.00;4.50;;;;;;;;5183082;27;11358;-86
2022/02/19 03:21:01;;;;;;;;;5.00;3.25;;;;;;;;5183693;27;11354;-86
2022/02/19 03:23:27;;;;;;;;;3.25;3.25;;;;;;;;5182683;27;11719;-87
2022/02/19 03:25:52;;;;;;;;;4.00;4.00;;;;;;;;5183103;27;9182;-86
2022/02/19 03:28:17;;;;;;;;;4.25;3.50;;;;;;;;5183020;27;12577;-89
2022/02/19 03:30:42;;;;;;;;;7.75;3.00;;;;;;;;5183953;27;10275;-87
2022/02/19 03:33:08;;;;;;;;;4.00;4.00;;;;;;;;5184577;27;11265;-88
2022/02/19 03:35:33;;;;;;;;;3.25;3.25;;;;;;;;5164624;27;12762;-87
2022/02/19 03:37:58;;;;;;;;;3.25;3.25;;;;;;;;5183297;27;11464;-87
2022/02/19 03:40:24;;;;;;;;;2.00;2.00;;;;;;;;5184356;27;8772;-87
2022/02/19 03:42:49;;;;;;;;;6.75;4.50;;;;;;;;5183753;27;12108;-88
2022/02/19 03:45:14;;;;;;;;;8.50;3.50;;;;;;;;5183722;27;11495;-75
2022/02/19 03:47:43;;;;;;;;;7.00;3.00;;;;;;;;5183144;27;10266;-86
2022/02/19 03:50:09;;;;;;;;;4.25;1.25;;;;;;;;5183732;27;11534;-85
2022/02/19 03:52:38;;;;;;;;;5.75;3.00;;;;;;;;5163926;27;13128;-84
2022/02/19 03:55:06;;;;;;;;;8.00;7.00;;;;;;;;5183608;27;12720;-84
2022/02/19 03:57:31;;;;;;;;;6.50;6.50;;;;;;;;5182733;27;11397;-83
2022/02/19 03:59:57;;;;;;;;;7.00;5.50;;;;;;;;5182753;27;11442;-83
2022/02/19 04:02:22;;;;;;;;;4.50;3.75;;;;;;;;5184151;27;10660;-84
2022/02/19 04:04:47;;;;;;;;;6.00;3.00;;;;;;;;5183442;27;11347;-85
2022/02/19 04:07:13;;;;;;;;;5.75;4.00;;;;;;;;5183692;27;11519;-84
2022/02/19 04:09:38;;;;;;;;;4.50;3.50;;;;;;;;5183535;27;11112;-83
2022/02/19 04:12:03;;;;;;;;;7.50;6.00;;;;;;;;5182454;27;11620;-83
2022/02/19 04:14:29;;;;;;;;;3.75;3.75;;;;;;;;5183778;27;12602;-83
2022/02/19 04:16:55;;;;;;;;;3.75;3.75;;;;;;;;5163943;27;13326;-84
2022/02/19 04:19:20;;;;;;;;;6.75;5.50;;;;;;;;5183253;27;8780;-85
2022/02/19 04:21:45;;;;;;;;;7.75;6.25;;;;;;;;5183148;27;11346;-84
2022/02/19 04:24:10;;;;;;;;;3.25;3.25;;;;;;;;5182929;27;11289;-84
2022/02/19 04:26:36;;;;;;;;;3.25;3.25;;;;;;;;5181937;27;9506;-84
2022/02/19 04:29:01;;;;;;;;;6.00;6.00;;;;;;;;5182546;27;8792;-84
2022/02/19 04:31:26;;;;;;;;;4.50;3.75;;;;;;;;5181685;27;11282;-84
2022/02/19 04:33:52;;;;;;;;;8.75;4.00;;;;;;;;5162578;27;13463;-83
2022/02/19 04:36:17;;;;;;;;;6.00;4.00;;;;;;;;5183561;27;11344;-82
2022/02/19 04:38:42;;;;;;;;;6.25;6.00;;;;;;;;5182794;27;8792;-83
2022/02/19 04:41:07;;;;;;;;;8.50;6.00;;;;;;;;5182535;27;9641;-85
2022/02/19 04:43:33;;;;;;;;;3.75;3.00;;;;;;;;5182676;27;8811;-84
2022/02/19 04:45:58;;;;;;;;;5.75;3.75;;;;;;;;5182309;27;11436;-83
2022/02/19 04:48:23;;;;;;;;;5.50;5.50;;;;;;;;5182525;27;11290;-83
2022/02/19 04:50:49;;;;;;;;;5.75;4.50;;;;;;;;5182969;27;10577;-82
2022/02/19 07:59:26;;;;;;;;;14.00;14.00;;;;;;;;5155770;27;23727;-78
2022/02/19 08:01:51;;;;;;;;;20.00;14.00;;;;;;;;5155797;27;11603;-78
2022/02/19 08:04:19;;;;;;;;;19.50;17.25;;;;;;;;5155907;27;9598;-78
2022/02/19 08:06:44;;;;;;;;;15.75;14.75;;;;;;;;5156499;27;14494;-78
2022/02/19 08:09:09;;;;;;;;;15.75;13.50;;;;;;;;5156152;27;11006;-78
2022/02/19 08:11:35;;;;;;;;;12.25;12.00;;;;;;;;5149498;27;8892;-80
2022/02/19 08:14:00;;;;;;;;;11.00;10.00;;;;;;;;5140327;27;11341;-81
2022/02/19 08:16:25;;;;;;;;;14.25;12.75;;;;;;;;5143448;27;10859;-78
2022/02/19 08:18:52;;;;;;;;;14.00;11.25;;;;;;;;5147455;27;11660;-77
2022/02/19 08:21:20;;;;;;;;;15.75;15.00;;;;;;;;5144183;27;10654;-78
2022/02/19 08:23:45;;;;;;;;;13.25;10.50;;;;;;;;5134601;27;12508;-78
2022/02/19 08:26:10;;;;;;;;;15.50;13.75;;;;;;;;5148579;27;11591;-78
2022/02/19 08:28:35;;;;;;;;;12.50;11.50;;;;;;;;5155202;27;11418;-77
2022/02/19 08:31:01;;;;;;;;;14.75;12.00;;;;;;;;5150962;27;11754;-77
2022/02/19 08:33:27;;;;;;;;;20.50;14.50;;;;;;;;5143333;27;13947;-75
2022/02/19 08:35:52;;;;;;;;;9.50;9.50;;;;;;;;5133993;27;14360;-82
2022/02/19 08:38:17;;;;;;;;;14.50;14.00;;;;;;;;5133245;27;24464;-74
2022/02/19 08:40:43;;;;;;;;;16.25;13.25;;;;;;;;5149663;27;24477;-77
2022/02/19 08:43:08;;;;;;;;;16.00;12.50;;;;;;;;5136354;27;11601;-81
2022/02/19 08:45:34;;;;;;;;;9.25;8.50;;;;;;;;5134041;27;12400;-77
2022/02/19 08:48:04;;;;;;;;;17.00;14.00;;;;;;;;5132619;27;24198;-76
2022/02/19 08:50:29;;;;;;;;;11.75;11.00;;;;;;;;5134207;27;22640;-75
2022/02/19 08:52:55;;;;;;;;;14.50;11.75;;;;;;;;5133481;27;11526;-75
2022/02/19 08:55:21;;;;;;;;;11.00;9.50;;;;;;;;5134390;27;11410;-76
2022/02/19 08:57:46;;;;;;;;;18.00;13.50;;;;;;;;5133642;27;21360;-76
2022/02/19 09:00:12;;;;;;;;;12.25;10.75;;;;;;;;5134491;27;21717;-75
2022/02/19 09:02:38;;;;;;;;;9.50;9.25;;;;;;;;5133857;27;13515;-76
2022/02/19 09:05:04;;;;;;;;;17.25;9.75;;;;;;;;5122909;27;23575;-76
2022/02/19 09:07:29;;;;;;;;;15.75;10.75;;;;;;;;5121410;27;21471;-76
2022/02/19 09:09:55;;;;;;;;;14.25;13.50;;;;;;;;5120029;28;21894;-73
2022/02/19 09:12:22;;;;;;;;;12.50;12.50;;;;;;;;5120174;28;13784;-75
2022/02/19 09:14:47;;;;;;;;;12.00;11.50;;;;;;;;5122147;27;10487;-74
2022/02/19 09:17:12;;;;;;;;;12.25;11.00;;;;;;;;5142346;27;11571;-74
2022/02/19 09:19:38;;;;;;;;;16.50;12.00;;;;;;;;5142270;27;8787;-75
2022/02/19 09:22:03;;;;;;;;;9.50;9.50;;;;;;;;5139355;27;10322;-75
2022/02/19 09:24:29;;;;;;;;;10.50;10.25;;;;;;;;5131037;27;22466;-74
2022/02/19 09:26:54;;;;;;;;;10.50;8.50;;;;;;;;5132662;27;22320;-75
2022/02/19 09:29:19;;;;;;;;;9.25;9.00;;;;;;;;5132719;27;16395;-76
2022/02/19 09:31:45;;;;;;;;;9.50;8.75;;;;;;;;5130934;27;22473;-73
2022/02/19 09:34:10;;;;;;;;;13.00;9.50;;;;;;;;5131117;27;10766;-75
2022/02/19 09:36:35;;;;;;;;;9.50;9.50;;;;;;;;5129802;27;22932;-75
2022/02/19 09:39:01;;;;;;;;;10.00;10.00;;;;;;;;5132155;27;16485;-75
2022/02/19 09:41:27;;;;;;;;;9.25;9.00;;;;;;;;5130840;27;22406;-74
2022/02/19 09:43:52;;;;;;;;;9.00;9.00;;;;;;;;5129638;27;22440;-76
2022/02/19 09:46:18;;;;;;;;;9.25;7.25;;;;;;;;5132819;27;11458;-74
2022/02/19 09:48:45;;;;;;;;;12.50;11.00;;;;;;;;5137464;27;10277;-77
2022/02/19 09:51:10;;;;;;;;;8.50;8.25;;;;;;;;5140634;27;22646;-77
2022/02/19 09:53:36;;;;;;;;;8.00;5.25;;;;;;;;5139560;27;22854;-75
2022/02/19 09:56:02;;;;;;;;;9.50;9.00;;;;;;;;5142055;27;10915;-75
2022/02/19 09:58:28;;;;;;;;;8.00;8.00;;;;;;;;5141977;27;11618;-74
2022/02/19 10:00:57;;;;;;;;;6.00;5.00;;;;;;;;5140943;27;10425;-74
2022/02/19 10:03:23;;;;;;;;;7.25;7.25;;;;;;;;5139572;27;11377;-73
2022/02/19 10:05:49;;;;;;;;;12.25;10.75;;;;;;;;5140332;27;11407;-75
2022/02/19 10:08:15;;;;;;;;;2.50;2.50;;;;;;;;5140633;27;22787;-74
2022/02/19 10:10:46;;;;;;;;;9.50;9.50;;;;;;;;5140345;27;22190;-74
2022/02/19 10:13:25;;;;;;;;;11.50;10.00;;;;;;;;5141873;27;8785;-73
2022/02/19 10:15:51;;;;;;;;;13.50;10.50;;;;;;;;5139296;27;22592;-78
2022/02/19 10:18:23;;;;;;;;;13.25;10.25;;;;;;;;5137427;27;12440;-75
2022/02/19 10:20:50;;;;;;;;;12.00;7.50;;;;;;;;5120271;27;8822;-74
2022/02/19 10:23:15;;;;;;;;;11.00;11.00;;;;;;;;5136833;27;22668;-74
2022/02/19 10:25:40;;;;;;;;;9.25;7.25;;;;;;;;5128644;27;21675;-75
2022/02/19 10:28:10;;;;;;;;;10.50;9.00;;;;;;;;5136024;27;22261;-77
2022/02/19 10:30:36;;;;;;;;;6.75;5.75;;;;;;;;5121179;27;22043;-77
2022/02/19 10:33:06;;;;;;;;;11.00;9.00;;;;;;;;5120375;27;21325;-80
2022/02/19 10:35:35;;;;;;;;;10.75;9.75;;;;;;;;5119737;27;21753;-81
2022/02/19 10:38:05;;;;;;;;;11.50;7.50;;;;;;;;5122283;27;11456;-78
2022/02/19 10:40:34;;;;;;;;;11.00;9.25;;;;;;;;5125827;27;12213;-81
2022/02/19 10:43:02;;;;;;;;;9.00;9.00;;;;;;;;5134503;27;12018;-77
2022/02/19 10:45:28;;;;;;;;;12.75;12.00;;;;;;;;5117622;28;21897;-75
2022/02/19 10:47:55;;;;;;;;;10.00;9.25;;;;;;;;5119375;27;23531;-75
2022/02/19 10:50:21;;;;;;;;;11.00;7.00;;;;;;;;5120156;27;21451;-75
2022/02/19 10:52:56;;;;;;;;;11.00;10.75;;;;;;;;5128990;27;11466;-75
2022/02/19 10:55:27;;;;;;;;;13.75;10.25;;;;;;;;5140681;27;16815;-75
2022/02/19 10:57:52;;;;;;;;;10.00;9.00;;;;;;;;5140679;27;11603;-77
2022/02/19 11:00:18;;;;;;;;;13.00;10.75;;;;;;;;5137360;27;21391;-76
2022/02/19 11:02:44;;;;;;;;;9.50;7.25;;;;;;;;5138731;27;21517;-75
2022/02/19 11:05:11;;;;;;;;;10.00;8.75;;;;;;;;5140108;27;23413;-77
2022/02/19 11:07:37;;;;;;;;;12.25;10.00;;;;;;;;5137899;27;23604;-79
2022/02/19 11:10:04;;;;;;;;;11.25;11.25;;;;;;;;5139078;27;22951;-77
2022/02/19 11:12:29;;;;;;;;;11.75;9.50;;;;;;;;5133804;27;12432;-76
2022/02/19 11:14:55;;;;;;;;;16.25;11.25;;;;;;;;5124954;27;23676;-76
2022/02/19 11:17:21;;;;;;;;;12.25;9.50;;;;;;;;5126068;27;24679;-77
2022/02/19 11:19:47;;;;;;;;;12.25;11.25;;;;;;;;5128377;27;21612;-80
2022/02/19 11:22:13;;;;;;;;;12.50;11.25;;;;;;;;5126839;27;16424;-78
2022/02/19 11:24:40;;;;;;;;;14.50;12.50;;;;;;;;5127701;27;8800;-76
2022/02/19 11:27:06;;;;;;;;;11.75;10.75;;;;;;;;5129015;27;11528;-79
2022/02/19 11:29:32;;;;;;;;;14.50;12.00;;;;;;;;5124130;27;13616;-77
2022/02/19 11:31:58;;;;;;;;;13.25;12.25;;;;;;;;5125565;27;11551;-76
2022/02/19 11:34:23;;;;;;;;;15.75;15.50;;;;;;;;5127317;27;11390;-77
2022/02/19 11:36:49;;;;;;;;;18.75;14.25;;;;;;;;5126730;27;11484;-76
2022/02/19 11:39:15;;;;;;;;;19.75;16.75;;;;;;;;5128792;27;11405;-74
2022/02/19 11:41:45;;;;;;;;;22.75;20.00;;;;;;;;5126444;27;10340;-74
2022/02/19 11:44:19;;;;;;;;;27.75;24.25;;;;;;;;5127761;27;13288;-75
2022/02/19 11:46:45;;;;;;;;;30.25;24.00;;;;;;;;5127243;27;11507;-76
2022/02/19 11:49:21;;;;;;;;;21.50;21.00;;;;;;;;5128752;27;13493;-77
2022/02/19 11:52:06;;;;;;;;;21.00;20.00;;;;;;;;5128539;27;12238;-77
2022/02/19 11:54:32;;;;;;;;;23.50;20.75;;;;;;;;5126246;27;11498;-76
2022/02/19 11:57:11;;;;;;;;;12.50;12.50;;;;;;;;5122083;27;11499;-78
2022/02/19 11:59:40;;;;;;;;;18.50;16.75;;;;;;;;5126987;27;13445;-76
2022/02/19 12:02:23;;;;;;;;;20.00;18.50;;;;;;;;5127698;27;11937;-75
2022/02/19 12:05:07;;;;;;;;;21.25;18.75;;;;;;;;5133887;27;13318;-76
2022/02/19 12:07:52;;;;;;;;;21.25;15.75;;;;;;;;5130424;27;11573;-76
2022/02/19 12:10:18;;;;;;;;;20.75;17.75;;;;;;;;5127002;27;12518;-77
2022/02/19 12:13:01;;;;;;;;;23.75;19.50;;;;;;;;5128793;27;11536;-76
2022/02/19 12:15:27;;;;;;;;;17.50;17.25;;;;;;;;5127150;27;13988;-77
2022/02/19 12:17:54;;;;;;;;;17.00;11.75;;;;;;;;5128772;27;13367;-77
2022/02/19 12:20:24;;;;;;;;;17.50;14.75;;;;;;;;5127853;27;9910;-73
2022/02/19 12:22:50;;;;;;;;;9.50;9.25;;;;;;;;5125125;27;11479;-73
2022/02/19 12:25:19;;;;;;;;;14.25;12.00;;;;;;;;5134778;27;22663;-75
2022/02/19 12:28:04;;;;;;;;;14.50;14.50;;;;;;;;5139136;27;23502;-73
2022/02/19 12:30:29;;;;;;;;;19.00;13.00;;;;;;;;5138789;27;11417;-73
2022/02/19 12:32:56;;;;;;;;;15.25;11.50;;;;;;;;5137363;27;11560;-72
2022/02/19 12:35:34;;;;;;;;;18.75;14.75;;;;;;;;5131424;27;12556;-74
2022/02/19 12:38:00;;;;;;;;;14.25;12.00;;;;;;;;5126674;27;13135;-72
2022/02/19 12:40:25;;;;;;;;;14.75;13.75;;;;;;;;5124646;27;11425;-75
2022/02/19 12:42:51;;;;;;;;;17.50;13.00;;;;;;;;5121954;27;11560;-74
2022/02/19 12:45:17;;;;;;;;;13.75;12.25;;;;;;;;5122175;27;11484;-74
2022/02/19 12:47:43;;;;;;;;;17.00;11.50;;;;;;;;5122053;27;12104;-73
2022/02/19 12:50:09;;;;;;;;;14.75;11.75;;;;;;;;5121579;27;12583;-75
2022/02/19 12:52:34;;;;;;;;;14.25;13.00;;;;;;;;5119175;28;11533;-75
2022/02/19 12:55:00;;;;;;;;;18.50;16.00;;;;;;;;5121290;27;11418;-73
2022/02/19 12:57:25;;;;;;;;;12.75;11.50;;;;;;;;5121544;27;10540;-74
2022/02/19 12:59:57;;;;;;;;;15.75;13.75;;;;;;;;5120049;28;13626;-74
2022/02/19 13:02:23;;;;;;;;;18.00;15.00;;;;;;;;5121611;27;11605;-73
2022/02/19 13:04:49;;;;;;;;;18.50;17.50;;;;;;;;5121403;27;11666;-73
2022/02/19 13:07:19;;;;;;;;;15.00;13.00;;;;;;;;5122026;27;11506;-76
2022/02/19 13:09:55;;;;;;;;;13.75;12.75;;;;;;;;5129624;27;11895;-82
2022/02/19 13:12:25;;;;;;;;;13.75;13.50;;;;;;;;5141865;27;11724;-81
2022/02/19 13:14:51;;;;;;;;;14.25;13.00;;;;;;;;5129312;27;11430;-80
2022/02/19 13:17:16;;;;;;;;;14.00;13.00;;;;;;;;5131508;27;12214;-79
2022/02/19 13:19:42;;;;;;;;;16.00;12.75;;;;;;;;5136572;27;8812;-85
2022/02/19 13:22:20;;;;;;;;;15.00;11.25;;;;;;;;5148874;27;11473;-88
2022/02/19 13:24:45;;;;;;;;;14.75;13.00;;;;;;;;5139791;27;11433;-87
2022/02/19 13:27:12;;;;;;;;;13.50;12.75;;;;;;;;5144545;27;11613;-82
2022/02/19 13:29:37;;;;;;;;;15.25;13.25;;;;;;;;5137005;27;11961;-87
2022/02/19 13:32:05;;;;;;;;;18.50;14.50;;;;;;;;5128736;27;11512;-85
2022/02/19 13:34:31;;;;;;;;;15.00;11.75;;;;;;;;5133352;27;11478;-87
2022/02/19 13:36:56;;;;;;;;;9.00;9.00;;;;;;;;5131417;27;12843;-84
2022/02/19 13:39:22;;;;;;;;;14.50;11.00;;;;;;;;5131090;27;22343;-84
2022/02/19 13:41:54;;;;;;;;;14.75;12.00;;;;;;;;5130188;27;22407;-81
2022/02/19 13:44:21;;;;;;;;;12.25;11.00;;;;;;;;5130306;27;9949;-85
2022/02/19 13:46:46;;;;;;;;;16.25;12.00;;;;;;;;5127731;27;11531;-81
2022/02/19 13:49:12;;;;;;;;;7.75;7.75;;;;;;;;5128163;27;11400;-87
2022/02/19 13:51:38;;;;;;;;;15.75;12.00;;;;;;;;5129537;27;23271;-82
2022/02/19 13:54:13;;;;;;;;;14.50;13.50;;;;;;;;5132147;27;22202;-82
2022/02/19 13:56:38;;;;;;;;;11.25;11.25;;;;;;;;5127115;27;13319;-83
2022/02/19 13:59:05;;;;;;;;;12.00;11.25;;;;;;;;5128106;27;11837;-83
2022/02/19 14:01:40;;;;;;;;;12.75;11.00;;;;;;;;5131507;27;8923;-84
2022/02/19 14:04:07;;;;;;;;;17.00;13.75;;;;;;;;5131280;27;11510;-79
2022/02/19 14:06:37;;;;;;;;;13.25;13.00;;;;;;;;5131056;27;11468;-86
2022/02/19 14:09:09;;;;;;;;;15.50;13.25;;;;;;;;5131265;27;11905;-89
2022/02/19 14:11:34;;;;;;;;;14.75;10.00;;;;;;;;5138829;27;11496;-85
2022/02/19 14:14:00;;;;;;;;;12.25;12.25;;;;;;;;5141569;27;11495;-83
2022/02/19 14:16:25;;;;;;;;;12.00;12.00;;;;;;;;5141985;27;11586;-85
2022/02/19 14:19:00;;;;;;;;;18.50;14.50;;;;;;;;5142731;27;8883;-85
2022/02/19 14:21:25;;;;;;;;;14.75;14.75;;;;;;;;5142865;27;11435;-77
2022/02/19 14:24:04;;;;;;;;;21.00;17.00;;;;;;;;5130755;27;11750;-83
2022/02/19 14:26:29;;;;;;;;;18.25;13.25;;;;;;;;5129015;27;13504;-82
2022/02/19 14:28:55;;;;;;;;;13.00;11.75;;;;;;;;5129195;27;13388;-82
2022/02/19 14:31:21;;;;;;;;;17.00;12.75;;;;;;;;5131220;27;10414;-81
2022/02/19 14:33:46;;;;;;;;;16.00;13.00;;;;;;;;5126964;27;11542;-82
2022/02/19 14:36:18;;;;;;;;;14.00;14.00;;;;;;;;5128835;27;13361;-80
2022/02/19 14:38:43;;;;;;;;;16.25;13.00;;;;;;;;5129170;27;9040;-80
2022/02/19 14:41:08;;;;;;;;;16.25;11.00;;;;;;;;5124799;27;11529;-84
2022/02/19 14:43:34;;;;;;;;;17.25;12.00;;;;;;;;5122041;27;8899;-84
2022/02/19 14:46:00;;;;;;;;;15.50;11.75;;;;;;;;5119193;27;8810;-83
2022/02/19 14:48:26;;;;;;;;;17.25;11.25;;;;;;;;5120213;27;11942;-82
2022/02/19 14:50:54;;;;;;;;;13.75;12.00;;;;;;;;5129976;27;11502;-83
2022/02/19 14:53:19;;;;;;;;;14.00;10.25;;;;;;;;5130605;27;11443;-82
2022/02/19 14:55:45;;;;;;;;;13.50;11.50;;;;;;;;5127448;27;11537;-82
2022/02/19 14:58:11;;;;;;;;;16.00;12.50;;;;;;;;5126836;27;11690;-83
2022/02/19 15:00:36;;;;;;;;;17.00;13.75;;;;;;;;5128622;27;10542;-83
2022/02/19 15:03:02;;;;;;;;;12.50;12.50;;;;;;;;5130355;27;11590;-82
2022/02/19 15:05:27;;;;;;;;;14.00;9.00;;;;;;;;5130190;27;12067;-82
2022/02/19 15:07:52;;;;;;;;;14.75;13.25;;;;;;;;5131451;27;23140;-82
2022/02/19 15:10:18;;;;;;;;;12.00;12.00;;;;;;;;5120582;27;21928;-82
2022/02/19 15:12:44;;;;;;;;;17.25;13.50;;;;;;;;5126833;27;11527;-82
2022/02/19 15:15:10;;;;;;;;;14.50;11.00;;;;;;;;5140598;27;11441;-82
2022/02/19 15:17:36;;;;;;;;;13.00;12.25;;;;;;;;5140424;27;11498;-81
2022/02/19 15:20:01;;;;;;;;;16.75;16.00;;;;;;;;5141841;27;11872;-80
2022/02/19 15:22:26;;;;;;;;;13.75;11.00;;;;;;;;5129589;27;11369;-82
2022/02/19 15:24:51;;;;;;;;;13.25;11.75;;;;;;;;5119904;28;8802;-83
2022/02/19 15:27:17;;;;;;;;;14.50;12.00;;;;;;;;5119055;27;8807;-81
2022/02/19 15:29:47;;;;;;;;;13.00;12.25;;;;;;;;5122488;27;11559;-84
2022/02/19 15:32:12;;;;;;;;;17.50;14.25;;;;;;;;5120862;27;11954;-81
2022/02/19 15:34:38;;;;;;;;;12.25;12.00;;;;;;;;5120651;27;12199;-82
2022/02/19 15:37:03;;;;;;;;;16.25;13.75;;;;;;;;5127103;27;12752;-80
2022/02/19 15:39:28;;;;;;;;;13.75;11.50;;;;;;;;5148560;27;11818;-84
2022/02/19 15:41:54;;;;;;;;;12.75;12.75;;;;;;;;5146193;27;11544;-82
2022/02/19 15:44:19;;;;;;;;;11.25;10.00;;;;;;;;5141179;27;11350;-82
2022/02/19 15:46:46;;;;;;;;;13.50;12.00;;;;;;;;5141004;27;11404;-80
2022/02/19 15:49:11;;;;;;;;;12.50;12.25;;;;;;;;5140475;27;11789;-81
2022/02/19 15:51:36;;;;;;;;;14.75;12.25;;;;;;;;5139787;27;11588;-74
2022/02/19 15:54:02;;;;;;;;;12.50;11.50;;;;;;;;5139240;27;11131;-79
2022/02/19 15:56:27;;;;;;;;;15.50;11.25;;;;;;;;5141178;27;11806;-79
2022/02/19 15:58:53;;;;;;;;;12.75;11.50;;;;;;;;5141767;27;11355;-80
2022/02/19 16:01:19;;;;;;;;;15.75;12.25;;;;;;;;5141541;27;11416;-80
2022/02/19 16:03:44;;;;;;;;;11.00;11.00;;;;;;;;5118544;27;11541;-78
2022/02/19 16:06:10;;;;;;;;;15.75;10.75;;;;;;;;5118815;28;11619;-81
2022/02/19 16:08:35;;;;;;;;;12.00;12.00;;;;;;;;5119478;28;11464;-75
2022/02/19 16:11:00;;;;;;;;;14.50;14.50;;;;;;;;5119268;28;11776;-77
2022/02/19 16:13:25;;;;;;;;;13.25;12.00;;;;;;;;5119250;27;11448;-76
2022/02/19 16:15:51;;;;;;;;;17.25;14.50;;;;;;;;5122775;28;11607;-75
2022/02/19 16:18:16;;;;;;;;;15.25;14.00;;;;;;;;5122741;28;11350;-76
2022/02/19 16:20:44;;;;;;;;;15.25;11.25;;;;;;;;5122807;28;12086;-78
2022/02/19 16:23:09;;;;;;;;;15.00;12.00;;;;;;;;5120608;28;9578;-79
2022/02/19 16:25:35;;;;;;;;;15.75;13.75;;;;;;;;5120970;28;11496;-75
2022/02/19 16:28:00;;;;;;;;;13.25;13.25;;;;;;;;5124460;27;10330;-76
2022/02/19 16:30:25;;;;;;;;;16.50;12.50;;;;;;;;5139258;27;10404;-84
2022/02/19 16:32:51;;;;;;;;;17.00;12.00;;;;;;;;5143281;27;11421;-85
2022/02/19 16:35:16;;;;;;;;;16.50;14.25;;;;;;;;5143557;27;11657;-84
2022/02/19 16:37:43;;;;;;;;;19.25;16.00;;;;;;;;5141855;27;11418;-76
2022/02/19 16:40:09;;;;;;;;;22.75;17.50;;;;;;;;5142259;27;13990;-89
2022/02/19 16:42:34;;;;;;;;;17.00;16.00;;;;;;;;5144538;27;14357;-87
2022/02/19 16:45:00;;;;;;;;;21.25;17.50;;;;;;;;5144594;27;13212;-81
2022/02/19 16:47:25;;;;;;;;;40.75;35.75;;;;;;;;5143239;27;13256;-81
2022/02/19 16:49:51;;;;;;;;;34.25;26.75;;;;;;;;5143088;27;14872;-83
2022/02/19 16:52:17;;;;;;;;;46.25;38.50;;;;;;;;5139223;27;11584;-83
2022/02/19 16:54:43;;;;;;;;;16.25;14.50;;;;;;;;5130556;27;13380;-80
2022/02/19 16:57:08;;;;;;;;;17.00;16.50;;;;;;;;5133014;27;11609;-81
2022/02/19 16:59:33;;;;;;;;;14.50;13.50;;;;;;;;5123915;27;10579;-85
2022/02/19 17:01:58;;;;;;;;;15.25;14.50;;;;;;;;5123166;27;10639;-85
2022/02/19 17:04:24;;;;;;;;;22.75;21.25;;;;;;;;5125991;27;10405;-80
2022/02/19 17:06:49;;;;;;;;;23.75;20.75;;;;;;;;5133120;27;14406;-90
2022/02/19 17:09:15;;;;;;;;;25.75;21.00;;;;;;;;5124702;27;10498;-87
2022/02/19 17:11:41;;;;;;;;;20.50;15.75;;;;;;;;5123896;27;11383;-84
2022/02/19 17:14:06;;;;;;;;;29.75;26.50;;;;;;;;5122605;27;12289;-88
2022/02/19 17:16:31;;;;;;;;;25.50;22.75;;;;;;;;5120752;28;14533;-81
2022/02/19 17:18:57;;;;;;;;;31.00;25.75;;;;;;;;5123126;27;11381;-80
2022/02/19 17:21:22;;;;;;;;;26.00;21.25;;;;;;;;5122719;27;12264;-83
2022/02/19 17:23:49;;;;;;;;;27.75;22.00;;;;;;;;5122401;28;13370;-81
2022/02/19 17:26:14;;;;;;;;;34.50;30.25;;;;;;;;5122668;27;11460;-82
2022/02/19 17:28:39;;;;;;;;;28.00;24.00;;;;;;;;5119979;28;15713;-80
2022/02/19 17:31:05;;;;;;;;;28.75;25.25;;;;;;;;5119947;28;14609;-82
2022/02/19 17:33:30;;;;;;;;;28.50;26.75;;;;;;;;5121672;27;10453;-84